Time;durP1;ratioP1;P1;durP2;ratioP2;P2;SDS_P1;SDS_P2;PMS_P1;PMS_P2;Temp;Humidity;BMP_temperature;BMP_pressure;BME280_temperature;BME280_humidity;BME280_pressure;Samples;Min_cycle;Max_cycle;Signal;HPM_P1;HPM_P2
2023/03/23 06:02:56;;;;;;;;;0.00;0.00;;;;;14.52;72.15;-19598.66;5008508;22;45654;-91
2023/03/23 06:05:25;;;;;;;;;0.00;0.00;;;;;14.30;72.24;-19592.88;4975154;28;45490;-91
2023/03/23 06:07:52;;;;;;;;;0.00;0.00;;;;;13.47;72.00;-19570.97;4952031;28;45580;-93
2023/03/23 06:10:17;;;;;;;;;0.00;0.00;;;;;14.83;72.58;-19606.59;4985138;22;46987;-90
2023/03/23 06:12:54;;;;;;;;;0.00;0.00;;;;;13.31;72.58;-19566.81;5171970;23;45373;-93
2023/03/23 06:15:20;;;;;;;;;0.00;0.00;;;;;13.43;71.84;-19569.91;4965587;28;45792;-94
2023/03/23 06:17:50;;;;;;;;;0.00;0.00;;;;;14.06;72.35;-19586.56;4990926;28;45560;-96
2023/03/23 06:20:15;;;;;;;;;0.00;0.00;;;;;13.39;73.12;-19568.97;4964682;28;45930;-93
2023/03/23 06:22:41;;;;;;;;;0.00;0.00;;;;;13.40;73.55;-19569.22;4966242;28;45741;-95
2023/03/23 06:25:08;;;;;;;;;0.00;0.00;;;;;13.90;73.27;-19582.41;4987931;28;45277;-96
2023/03/23 06:27:35;;;;;;;;;0.00;0.00;;;;;14.20;73.47;-19590.06;4976933;28;45511;-92
2023/03/23 06:30:00;;;;;;;;;2.00;0.00;;;;;13.69;73.89;-19576.88;4964190;28;46363;-93
2023/03/23 06:32:30;;;;;;;;;0.00;0.00;;;;;13.37;73.74;-19568.41;4965504;28;45275;-93
2023/03/23 06:34:56;;;;;;;;;0.00;0.00;;;;;13.94;73.37;-19583.47;4965776;28;45365;-96
2023/03/23 06:37:23;;;;;;;;;0.00;0.00;;;;;14.78;73.35;-19605.38;4965154;28;45350;-96
2023/03/23 06:39:48;;;;;;;;;0.00;0.00;;;;;13.71;73.16;-19577.28;4977845;28;45727;-96
2023/03/23 06:42:14;;;;;;;;;0.00;0.00;;;;;14.03;73.62;-19585.63;4962036;28;45615;-96
2023/03/23 06:44:39;;;;;;;;;0.00;0.00;;;;;13.29;73.33;-19566.25;4962464;28;45330;-96
2023/03/23 06:47:07;;;;;;;;;0.00;0.00;;;;;14.22;73.83;-19590.59;4966567;28;45640;-94
2023/03/23 06:49:33;;;;;;;;;0.00;0.00;;;;;13.86;73.00;-19581.31;4987730;28;45463;-93
2023/03/23 06:52:00;;;;;;;;;0.00;0.00;;;;;13.29;73.37;-19566.25;4962503;28;45348;-94
2023/03/23 06:54:26;;;;;;;;;1.33;1.33;;;;;14.66;74.88;-19602.16;4966698;28;45509;-93
2023/03/23 06:56:51;;;;;;;;;0.00;0.00;;;;;14.10;73.90;-19587.63;4990650;28;45883;-94
2023/03/23 06:59:16;;;;;;;;;0.00;0.00;;;;;13.73;74.00;-19577.97;4966753;28;47154;-94
2023/03/23 07:01:42;;;;;;;;;0.00;0.00;;;;;13.78;74.40;-19579.16;4979465;28;45447;-93
2023/03/23 07:04:07;;;;;;;;;0.00;0.00;;;;;13.82;73.94;-19580.13;4962124;28;45410;-94
2023/03/23 07:06:33;;;;;;;;;2.00;0.00;;;;;13.43;73.89;-19569.91;4962786;28;45298;-93
2023/03/23 07:08:58;;;;;;;;;0.00;0.00;;;;;14.03;73.86;-19585.63;4978896;28;46819;-95
2023/03/23 07:11:24;;;;;;;;;0.00;0.00;;;;;13.96;74.57;-19583.88;4963213;28;45392;-94
2023/03/23 07:13:50;;;;;;;;;0.00;0.00;;;;;13.53;74.14;-19572.59;4977839;28;45478;-92
2023/03/23 07:16:17;;;;;;;;;3.00;0.00;;;;;14.54;74.29;-19599.06;4977222;28;45353;-91
2023/03/23 07:18:43;;;;;;;;;1.00;0.00;;;;;13.87;74.29;-19581.59;4962615;28;47905;-91
2023/03/23 07:21:08;;;;;;;;;1.00;0.00;;;;;15.06;74.17;-19612.75;4984567;28;45399;-92
2023/03/23 07:23:34;;;;;;;;;0.00;0.00;;;;;14.44;73.77;-19596.38;4984897;28;45473;-94
2023/03/23 07:26:00;;;;;;;;;3.00;0.00;;;;;13.50;74.47;-19571.78;4967390;28;45405;-94
2023/03/23 07:28:26;;;;;;;;;0.00;0.00;;;;;14.37;73.64;-19594.63;4968019;28;47211;-94
2023/03/23 07:30:51;;;;;;;;;0.00;0.00;;;;;13.23;74.00;-19564.78;4964024;28;45435;-96
2023/03/23 07:33:19;;;;;;;;;0.00;0.00;;;;;13.54;74.04;-19572.84;4979367;28;45551;-95
2023/03/23 07:35:45;;;;;;;;;1.00;1.00;;;;;13.66;74.34;-19576.09;4983071;28;44790;-94
2023/03/23 07:38:11;;;;;;;;;0.00;0.00;;;;;14.32;73.00;-19593.28;4982596;28;47014;-93
2023/03/23 07:40:37;;;;;;;;;1.33;0.00;;;;;13.33;73.36;-19567.34;4964721;28;45400;-93
2023/03/23 07:43:04;;;;;;;;;0.00;0.00;;;;;14.53;73.33;-19598.91;4979860;28;45415;-94
2023/03/23 07:45:30;;;;;;;;;0.67;0.00;;;;;13.94;73.21;-19583.34;4978871;28;45448;-92
2023/03/23 07:47:56;;;;;;;;;1.00;0.00;;;;;14.64;73.70;-19601.75;4977605;28;48256;-93
2023/03/23 07:50:24;;;;;;;;;1.00;1.00;;;;;13.49;73.39;-19571.66;4961014;28;45358;-94
2023/03/23 07:52:57;;;;;;;;;1.00;1.00;;;;;13.69;73.16;-19576.75;4978470;28;45312;-93
2023/03/23 07:55:24;;;;;;;;;0.00;0.00;;;;;14.47;72.53;-19597.16;4978568;28;45452;-94
2023/03/23 07:57:51;;;;;;;;;1.00;1.00;;;;;13.83;72.69;-19580.50;4978010;28;46420;-93
2023/03/23 08:00:23;;;;;;;;;1.00;1.00;;;;;14.80;72.79;-19605.91;4960176;28;45427;-90
2023/03/23 08:02:53;;;;;;;;;1.33;0.00;;;;;14.82;72.49;-19606.44;4959884;28;45388;-92
2023/03/23 08:05:21;;;;;;;;;0.00;0.00;;;;;15.35;72.57;-19620.25;4960229;28;45321;-91
2023/03/23 08:07:49;;;;;;;;;0.00;0.00;;;;;15.37;72.38;-19620.81;4956384;28;48130;-92
2023/03/23 08:10:17;;;;;;;;;0.33;0.33;;;;;14.72;72.59;-19603.75;4960926;28;45769;-93
2023/03/23 08:12:43;;;;;;;;;0.00;0.00;;;;;13.93;71.84;-19583.22;4974080;28;45360;-93
2023/03/23 08:15:14;;;;;;;;;1.67;0.00;;;;;14.71;71.65;-19603.63;4981598;28;45316;-93
2023/03/23 08:17:40;;;;;;;;;1.00;0.00;;;;;14.01;71.62;-19585.22;4960300;28;47288;-91
2023/03/23 08:20:10;;;;;;;;;0.67;0.00;;;;;15.27;71.52;-19618.25;4977911;28;45308;-93
2023/03/23 08:22:38;;;;;;;;;0.00;0.00;;;;;15.44;70.80;-19622.53;4982832;28;45503;-92
2023/03/23 08:25:06;;;;;;;;;1.00;1.00;;;;;15.26;70.94;-19617.97;4982609;28;45342;-91
2023/03/23 08:27:31;;;;;;;;;0.00;0.00;;;;;15.14;70.87;-19614.75;4965942;28;47544;-92
2023/03/23 08:29:57;;;;;;;;;1.00;1.00;;;;;15.58;69.89;-19626.31;4984818;28;45401;-90
2023/03/23 08:32:23;;;;;;;;;2.00;1.00;;;;;15.34;69.93;-19620.00;4979209;28;45417;-92
2023/03/23 08:34:49;;;;;;;;;1.00;1.00;;;;;15.05;70.13;-19612.47;4983172;28;45483;-94
2023/03/23 08:37:15;;;;;;;;;0.00;0.00;;;;;14.48;69.15;-19597.44;4966424;28;48458;-96
2023/03/23 08:39:42;;;;;;;;;2.00;0.67;;;;;15.60;68.93;-19626.84;4965733;28;45412;-95
2023/03/23 08:42:08;;;;;;;;;1.00;1.00;;;;;15.01;68.58;-19611.41;4959341;28;45535;-90
2023/03/23 08:44:34;;;;;;;;;1.00;0.33;;;;;15.86;68.43;-19633.69;4959668;28;45398;-91
2023/03/23 08:47:00;;;;;;;;;1.00;0.33;;;;;15.62;68.49;-19627.50;4959132;28;48317;-90
2023/03/23 08:49:25;;;;;;;;;2.00;1.00;;;;;16.03;68.03;-19638.25;4959675;28;45362;-95
2023/03/23 08:51:51;;;;;;;;;1.33;0.00;;;;;15.80;67.97;-19632.06;4960776;28;45325;-92
2023/03/23 08:54:16;;;;;;;;;1.00;1.00;;;;;15.77;68.57;-19631.41;4981064;28;45482;-93
2023/03/23 08:56:42;;;;;;;;;1.00;0.00;;;;;15.30;69.15;-19618.94;4963438;28;48629;-93
2023/03/23 08:59:08;;;;;;;;;0.00;0.00;;;;;15.37;68.80;-19620.94;4965637;28;45333;-94
2023/03/23 09:01:33;;;;;;;;;0.00;0.00;;;;;15.30;69.18;-19619.06;4968062;28;45451;-94
2023/03/23 09:03:59;;;;;;;;;1.67;0.33;;;;;14.45;68.57;-19596.63;4973034;28;45498;-96
2023/03/23 09:06:25;;;;;;;;;0.00;0.00;;;;;15.23;68.52;-19617.19;4966612;28;47955;-95
2023/03/23 09:08:51;;;;;;;;;1.00;1.00;;;;;15.73;68.87;-19630.19;4980621;28;45441;-92
2023/03/23 09:11:17;;;;;;;;;3.00;1.00;;;;;14.91;68.61;-19608.88;4980571;28;45349;-92
2023/03/23 09:13:42;;;;;;;;;1.00;0.67;;;;;15.29;68.37;-19618.66;4981655;28;45427;-93
2023/03/23 09:16:08;;;;;;;;;0.00;0.00;;;;;15.67;68.27;-19628.59;4977508;28;47124;-91
2023/03/23 09:18:34;;;;;;;;;1.00;1.00;;;;;15.81;68.78;-19632.47;4961826;28;45574;-93
2023/03/23 09:21:02;;;;;;;;;0.00;0.00;;;;;15.93;68.41;-19635.44;4969632;28;45399;-93
2023/03/23 09:23:27;;;;;;;;;0.00;0.00;;;;;15.18;67.18;-19615.84;4960548;28;45350;-93
2023/03/23 09:25:53;;;;;;;;;1.00;1.00;;;;;16.11;67.03;-19640.25;4965997;28;47963;-93
2023/03/23 09:28:19;;;;;;;;;0.00;0.00;;;;;16.13;67.68;-19640.78;4969200;28;45523;-90
2023/03/23 09:30:47;;;;;;;;;0.67;0.67;;;;;15.75;67.02;-19630.88;4984464;28;45379;-91
2023/03/23 09:33:13;;;;;;;;;0.67;0.67;;;;;16.16;67.37;-19641.59;4959330;28;45467;-93
2023/03/23 09:35:38;;;;;;;;;0.00;0.00;;;;;15.76;66.45;-19631.00;4951114;28;47109;-91
2023/03/23 09:38:05;;;;;;;;;0.00;0.00;;;;;16.25;67.06;-19644.00;4978567;28;45318;-91
2023/03/23 09:40:48;;;;;;;;;0.00;0.00;;;;;16.77;66.05;-19657.53;4979220;28;45313;-92
2023/03/23 09:43:24;;;;;;;;;0.00;0.00;;;;;16.60;65.86;-19653.13;4965607;28;45519;-94
2023/03/23 09:46:19;;;;;;;;;0.00;0.00;;;;;16.63;66.02;-19653.91;4965185;28;47541;-93
2023/03/23 09:48:48;;;;;;;;;0.00;0.00;;;;;16.58;66.02;-19652.56;4965661;28;45314;-94
2023/03/23 09:51:41;;;;;;;;;0.00;0.00;;;;;16.72;65.45;-19656.06;5001831;28;45348;-95
2023/03/23 09:54:28;;;;;;;;;1.00;0.00;;;;;16.79;65.25;-19657.94;4966139;28;45615;-93
2023/03/23 09:56:55;;;;;;;;;0.00;0.00;;;;;16.73;65.34;-19656.31;4969627;28;46379;-96
2023/03/23 09:59:48;;;;;;;;;0.00;0.00;;;;;17.26;65.12;-19670.38;4962389;28;45444;-93
2023/03/23 10:02:27;;;;;;;;;0.00;0.00;;;;;17.50;63.78;-19676.69;4981793;28;45408;-95
2023/03/23 10:05:12;;;;;;;;;1.33;0.00;;;;;17.33;64.22;-19672.13;4979469;28;45875;-94
2023/03/23 10:07:38;;;;;;;;;0.00;0.00;;;;;18.31;63.05;-19697.81;4966528;28;48089;-95
2023/03/23 10:10:05;;;;;;;;;1.00;1.00;;;;;18.69;63.02;-19707.56;4976784;28;45542;-94
2023/03/23 10:12:41;;;;;;;;;1.00;1.00;;;;;19.81;61.20;-19736.94;4963384;28;45391;-93
2023/03/23 10:15:09;;;;;;;;;0.00;0.00;;;;;20.59;59.70;-19757.22;4965261;28;45607;-92
2023/03/23 10:17:45;;;;;;;;;0.00;0.00;;;;;20.93;59.85;-19765.88;4960835;28;47899;-94
2023/03/23 10:20:14;;;;;;;;;0.67;0.67;;;;;21.19;59.58;-19772.81;4961233;28;46084;-92
2023/03/23 10:22:48;;;;;;;;;1.00;1.00;;;;;21.07;58.28;-19769.59;4962587;28;45443;-92
2023/03/23 10:25:14;;;;;;;;;0.00;0.00;;;;;21.20;57.38;-19771.09;4980387;28;45294;-92
2023/03/23 10:28:12;;;;;;;;;0.00;0.00;;;;;20.93;58.58;-19764.03;4962124;28;47104;-92
2023/03/23 10:30:45;;;;;;;;;0.00;0.00;;;;;20.97;56.80;-19092.16;4983092;28;44864;-92
2023/03/23 10:33:31;;;;;;;;;2.00;1.33;;;;;20.82;54.80;-17406.38;4965002;28;45488;-94
2023/03/23 10:36:07;;;;;;;;;0.00;0.00;;;;;20.56;57.25;-18409.41;4974792;28;45211;-96
2023/03/23 10:38:48;;;;;;;;;0.00;0.00;;;;;20.65;55.56;-17066.06;4959111;28;45807;-96
2023/03/23 10:41:19;;;;;;;;;0.00;0.00;;;;;20.30;54.57;-16049.53;4981562;28;45545;-93
2023/03/23 10:43:50;;;;;;;;;0.50;0.50;;;;;20.52;55.02;-15717.50;4962966;28;45442;-94
2023/03/23 10:46:27;;;;;;;;;0.00;0.00;;;;;20.53;55.06;-15717.69;4959190;28;45452;-96
2023/03/23 10:48:56;;;;;;;;;0.00;0.00;;;;;20.53;54.47;-15044.63;4977501;28;48037;-92
2023/03/23 10:51:27;;;;;;;;;0.00;0.00;;;;;20.45;54.01;-14033.47;4979268;28;45419;-96
2023/03/23 10:53:58;;;;;;;;;0.00;0.00;;;;;20.42;53.92;-14032.97;4961952;28;45368;-92
2023/03/23 10:56:34;;;;;;;;;0.00;0.00;;;;;20.15;53.70;-13691.81;4973384;28;45520;-91
2023/03/23 10:59:22;;;;;;;;;0.00;0.00;;;;;20.06;54.86;-14026.72;4956895;28;47690;-92
2023/03/23 11:01:54;;;;;;;;;1.00;1.00;;;;;20.50;54.21;-13697.53;4973772;28;45522;-91
2023/03/23 11:04:22;;;;;;;;;1.00;0.00;;;;;20.45;53.99;-13360.13;4958290;28;45506;-91
2023/03/23 11:06:55;;;;;;;;;0.25;0.00;;;;;19.71;54.46;-13348.31;4979852;28;45371;-95
2023/03/23 11:09:36;;;;;;;;;0.50;0.50;;;;;18.63;54.20;-12995.34;4972377;28;45473;-93
2023/03/23 11:12:02;;;;;;;;;0.00;0.00;;;;;20.09;54.81;-12681.41;4964366;28;45764;-95
2023/03/23 11:14:58;;;;;;;;;0.00;0.00;;;;;19.43;54.57;-12335.38;4962381;28;45971;-92
2023/03/23 11:17:30;;;;;;;;;0.50;0.00;;;;;18.26;54.96;-11982.94;4886932;29;45743;-94
2023/03/23 11:20:56;;;;;;;;;0.00;0.00;;;;;18.86;54.22;-11319.38;4858773;28;47255;-93
2023/03/23 11:26:47;;;;;;;;;0.00;0.00;;;;;19.43;54.73;-10990.28;5005834;28;45594;-93
2023/03/23 11:29:17;;;;;;;;;1.00;1.00;;;;;19.28;54.87;-10652.16;5000263;28;45671;-93
2023/03/23 11:32:32;;;;;;;;;0.00;0.00;;;;;19.23;54.83;-10651.59;5010750;22;46175;-96
2023/03/23 11:35:01;;;;;;;;;0.00;0.00;;;;;18.34;55.14;-10641.19;4957869;28;45290;-93
2023/03/23 11:37:40;;;;;;;;;0.00;0.00;;;;;19.14;55.71;-11322.88;4945815;28;45459;-92
2023/03/23 11:40:09;;;;;;;;;0.00;0.00;;;;;19.27;55.99;-11660.78;4959710;28;45444;-96
2023/03/23 11:42:45;;;;;;;;;0.00;0.00;;;;;19.20;54.69;-10987.47;4958216;28;47046;-93
2023/03/23 11:45:25;;;;;;;;;0.00;0.00;;;;;19.13;54.67;-10650.41;4957033;28;45336;-92
2023/03/23 11:48:25;;;;;;;;;1.00;1.00;;;;;17.77;54.69;-10299.03;4953830;28;45499;-94
2023/03/23 11:51:25;;;;;;;;;0.00;0.00;;;;;19.28;54.74;-10315.84;4946370;28;45413;-91
2023/03/23 11:54:11;;;;;;;;;10.33;8.67;;;;;19.24;54.58;-10315.44;4935820;28;48060;-96
2023/03/23 11:56:43;;;;;;;;;2.00;2.00;;;;;18.90;54.32;-10647.78;4542849;23;46785;-96
2023/03/23 11:59:14;;;;;;;;;1.00;1.00;;;;;18.54;54.78;-10307.69;4965779;28;46472;-94
2023/03/23 12:28:25;;;;;;;;;1.00;1.00;;;;;19.21;53.71;-9642.44;5226601;23;45604;-91
2023/03/23 12:31:22;;;;;;;;;0.00;0.00;;;;;19.48;54.79;-10654.53;4884023;29;45823;-88
2023/03/23 12:34:07;;;;;;;;;0.00;0.00;;;;;19.58;54.40;-10655.72;4896534;28;45711;-89
2023/03/23 12:39:28;;;;;;;;;1.33;0.00;;;;;19.54;54.00;-9645.81;4972389;28;45326;-90
2023/03/23 12:41:53;;;;;;;;;0.00;0.00;;;;;19.49;54.23;-9645.34;4969154;28;45493;-89
2023/03/23 12:47:50;;;;;;;;;0.00;0.00;;;;;19.08;54.68;-10649.88;4986624;22;45446;-88
2023/03/23 12:50:42;;;;;;;;;1.00;1.00;;;;;18.44;53.85;-10306.50;4976478;28;46339;-92
2023/03/23 12:53:23;;;;;;;;;0.00;0.00;;;;;18.86;54.10;-9975.06;4978332;28;45488;-88
2023/03/23 12:56:29;;;;;;;;;1.33;0.33;;;;;19.89;54.15;-9986.03;4979345;28;45568;-88
2023/03/23 12:59:35;;;;;;;;;3.00;0.00;;;;;19.33;52.67;-8970.88;4977492;28;45512;-88
2023/03/23 13:02:21;;;;;;;;;0.67;0.00;;;;;19.81;53.63;-9311.91;4893562;28;45499;-90
2023/03/23 13:07:22;;;;;;;;;0.00;0.00;;;;;19.69;53.23;-7963.97;5017249;23;67684;-90
2023/03/23 13:10:06;;;;;;;;;0.75;0.00;;;;;19.65;52.88;-7626.94;4974690;28;45548;-90
2023/03/23 13:12:34;;;;;;;;;0.25;0.25;;;;;19.46;53.20;-7289.00;4968860;28;45539;-91
2023/03/23 13:15:26;;;;;;;;;0.00;0.00;;;;;19.41;53.06;-7625.34;4979956;28;45491;-90
2023/03/23 13:18:02;;;;;;;;;0.00;0.00;;;;;19.60;53.14;-7289.94;4980885;28;45664;-91
2023/03/23 13:20:49;;;;;;;;;3.67;0.33;;;;;19.59;52.47;-6953.13;4966395;28;45617;-90
2023/03/23 13:23:43;;;;;;;;;0.00;0.00;;;;;19.64;52.71;-7290.16;4963728;28;47575;-91
2023/03/23 13:26:14;;;;;;;;;1.00;1.00;;;;;19.67;52.66;-6953.53;4972423;28;45534;-91
2023/03/23 13:29:08;;;;;;;;;1.00;1.00;;;;;19.67;53.13;-7290.31;4978678;28;45443;-91
2023/03/23 13:31:39;;;;;;;;;0.00;0.00;;;;;19.63;53.35;-7290.06;4966156;28;45468;-90
2023/03/23 13:34:19;;;;;;;;;1.00;0.00;;;;;19.59;53.83;-7289.84;4980956;28;45503;-91
2023/03/23 13:37:04;;;;;;;;;0.00;0.00;;;;;19.53;52.50;-6615.97;4960664;28;45540;-92
2023/03/23 13:39:33;;;;;;;;;0.00;0.00;;;;;19.42;53.43;-6952.09;4960947;28;45279;-93
2023/03/23 13:42:21;;;;;;;;;0.00;0.00;;;;;19.33;53.77;-6614.94;4974150;28;45338;-96
2023/03/23 13:44:53;;;;;;;;;1.67;0.33;;;;;19.40;52.83;-5941.88;4969871;28;47309;-96
2023/03/23 13:47:32;;;;;;;;;0.00;0.00;;;;;19.39;53.24;-6615.28;4977631;28;45364;-96
2023/03/23 13:50:04;;;;;;;;;0.00;0.00;;;;;18.89;53.37;-6276.16;4967882;28;45482;-96
2023/03/23 13:52:44;;;;;;;;;1.00;1.00;;;;;19.48;53.21;-6615.72;4958985;28;45757;-94
2023/03/23 13:55:21;;;;;;;;;0.75;0.75;;;;;19.28;52.79;-5941.34;4971772;28;47432;-96
2023/03/23 13:57:57;;;;;;;;;0.33;0.00;;;;;19.54;52.29;-5605.59;4970515;28;45341;-96
2023/03/23 14:00:29;;;;;;;;;1.67;1.67;;;;;19.57;51.75;-4594.91;4962494;28;45440;-96
2023/03/23 14:03:01;;;;;;;;;0.00;0.00;;;;;19.58;52.14;-5268.84;4965968;28;45483;-96
2023/03/23 14:05:34;;;;;;;;;0.00;0.00;;;;;19.02;52.45;-4593.78;4970086;28;48347;-96
2023/03/23 14:08:03;;;;;;;;;1.00;1.00;;;;;19.25;51.22;-3920.63;4985211;22;45481;-90
2023/03/23 14:10:39;;;;;;;;;2.00;0.33;;;;;19.20;51.23;-2909.94;5108839;22;45606;-92
2023/03/23 14:13:11;;;;;;;;;0.00;0.00;;;;;19.26;51.60;-2909.91;4978989;28;45526;-91
2023/03/23 14:15:53;;;;;;;;;0.50;0.00;;;;;19.34;51.78;-2909.84;4961160;28;48118;-89
2023/03/23 14:18:22;;;;;;;;;0.00;0.00;;;;;19.30;51.74;-2909.88;4978857;28;45509;-89
2023/03/23 14:20:48;;;;;;;;;0.00;0.00;;;;;18.74;52.35;-2910.22;4982211;28;45474;-90
2023/03/23 14:23:19;;;;;;;;;1.00;0.00;;;;;19.23;52.55;-2909.94;4960717;28;45369;-89
2023/03/23 14:25:54;;;;;;;;;1.00;1.00;;;;;19.15;52.12;-2236.13;4959879;28;46198;-88
2023/03/23 14:28:21;;;;;;;;;2.00;0.67;;;;;19.08;52.29;-2910.03;4958140;28;45571;-88
2023/03/23 14:30:52;;;;;;;;;0.00;0.00;;;;;18.95;53.01;-2910.09;4977760;28;45570;-88
2023/03/23 14:33:19;;;;;;;;;0.67;0.00;;;;;18.73;52.67;-2910.25;4978178;28;45511;-89
2023/03/23 14:35:48;;;;;;;;;0.67;0.67;;;;;18.85;53.33;-3246.88;4978824;28;45671;-89
2023/03/23 14:38:20;;;;;;;;;1.00;1.00;;;;;19.06;53.31;-3583.66;4978602;28;45503;-88
2023/03/23 14:40:47;;;;;;;;;2.33;1.00;;;;;19.04;53.07;-3583.66;4963588;28;45442;-89
2023/03/23 14:43:16;;;;;;;;;2.33;0.00;;;;;18.54;53.40;-3919.91;4978675;28;45536;-87
2023/03/23 14:45:42;;;;;;;;;0.67;0.67;;;;;18.76;53.68;-3920.13;4964961;28;47401;-89
2023/03/23 14:48:13;;;;;;;;;1.00;1.00;;;;;18.89;54.17;-4256.91;4977298;28;45298;-88
2023/03/23 14:50:41;;;;;;;;;0.00;0.00;;;;;18.70;53.81;-4593.16;4978172;28;45363;-90
2023/03/23 14:53:16;;;;;;;;;1.67;1.00;;;;;18.96;54.08;-4593.66;4977508;28;45539;-89
2023/03/23 14:55:43;;;;;;;;;0.00;0.00;;;;;18.94;53.83;-4593.63;4958975;28;48365;-89
2023/03/23 14:58:14;;;;;;;;;0.00;0.00;;;;;18.80;54.25;-4256.78;4976383;28;46234;-89
2023/03/23 15:00:45;;;;;;;;;2.00;0.67;;;;;18.93;53.33;-3920.31;4977449;28;45435;-89
2023/03/23 15:03:15;;;;;;;;;0.67;0.67;;;;;18.92;54.23;-4256.97;4974658;28;45615;-90
2023/03/23 15:05:48;;;;;;;;;0.00;0.00;;;;;18.91;54.21;-4256.94;4968979;28;45650;-89
2023/03/23 15:08:29;;;;;;;;;0.00;0.00;;;;;18.65;53.96;-3920.03;4970979;28;46015;-89
2023/03/23 15:11:05;;;;;;;;;0.00;0.00;;;;;18.34;53.65;-3919.72;4978331;28;45245;-89
2023/03/23 15:13:31;;;;;;;;;1.00;1.00;;;;;18.51;53.61;-3919.88;4978417;28;45373;-93
2023/03/23 15:16:13;;;;;;;;;0.00;0.00;;;;;18.87;54.17;-3920.25;4979324;28;45802;-93
2023/03/23 15:18:45;;;;;;;;;1.00;1.00;;;;;18.85;53.42;-3583.56;4963911;28;45412;-95
2023/03/23 15:21:34;;;;;;;;;0.00;0.00;;;;;18.88;53.68;-3920.25;4972365;28;45430;-94
2023/03/23 15:24:00;;;;;;;;;0.00;0.00;;;;;18.71;53.89;-3583.50;4979928;28;45554;-94
2023/03/23 15:26:29;;;;;;;;;0.00;0.00;;;;;18.90;53.28;-3583.59;4962470;28;46489;-94
2023/03/23 15:29:07;;;;;;;;;0.00;0.00;;;;;18.90;53.40;-3583.59;4961922;28;45366;-93
2023/03/23 15:31:33;;;;;;;;;0.67;0.33;;;;;18.68;54.11;-3583.50;4978669;28;45295;-94
2023/03/23 15:34:03;;;;;;;;;0.33;0.00;;;;;18.85;53.55;-3583.56;4961984;28;45567;-94
2023/03/23 15:36:33;;;;;;;;;1.00;1.00;;;;;18.60;53.14;-3246.91;4967945;28;47435;-95
2023/03/23 15:38:59;;;;;;;;;1.00;0.00;;;;;18.62;53.46;-3583.47;4964498;28;45350;-93
2023/03/23 15:41:32;;;;;;;;;0.00;0.00;;;;;18.82;53.19;-2910.19;4969753;28;45397;-93
2023/03/23 15:44:10;;;;;;;;;0.00;0.00;;;;;18.67;53.71;-2910.28;4993033;28;45431;-95
2023/03/23 15:46:35;;;;;;;;;2.00;0.33;;;;;18.64;53.39;-2573.66;4982762;28;47335;-93
2023/03/23 15:49:01;;;;;;;;;0.67;0.67;;;;;18.72;52.96;-2236.88;4954521;28;45613;-93
2023/03/23 15:51:29;;;;;;;;;0.00;0.00;;;;;18.21;53.24;-2237.72;4972258;28;45298;-93
2023/03/23 15:53:55;;;;;;;;;0.00;0.00;;;;;18.55;53.39;-2237.16;4978933;28;45551;-93
2023/03/23 15:56:21;;;;;;;;;0.00;0.00;;;;;18.49;53.25;-2237.25;4960592;28;47658;-93
2023/03/23 15:58:47;;;;;;;;;1.00;1.00;;;;;18.24;53.64;-1901.22;4979333;28;45329;-94
2023/03/23 16:01:20;;;;;;;;;0.00;0.00;;;;;18.52;52.90;-1563.91;4980175;28;45288;-93
2023/03/23 16:03:54;;;;;;;;;2.33;1.33;;;;;18.47;53.42;-1227.41;4960858;28;45334;-93
2023/03/23 16:06:23;;;;;;;;;0.00;0.00;;;;;18.13;52.90;-1228.53;4963608;28;48476;-93
2023/03/23 16:08:49;;;;;;;;;0.00;0.00;;;;;18.25;52.98;-891.53;4961103;28;45338;-93
2023/03/23 16:11:16;;;;;;;;;0.00;0.00;;;;;18.26;53.59;-1228.09;4981056;28;45498;-94
2023/03/23 16:13:42;;;;;;;;;2.00;1.00;;;;;18.06;53.96;-1228.75;4979106;28;45360;-93
2023/03/23 16:16:25;;;;;;;;;0.00;0.00;;;;;18.30;53.11;-891.34;4979237;28;45487;-93
2023/03/23 16:18:51;;;;;;;;;0.00;0.00;;;;;18.28;53.48;-891.44;4977698;28;45558;-92
2023/03/23 16:21:16;;;;;;;;;0.00;0.00;;;;;18.26;54.02;-891.50;4960729;28;45544;-92
2023/03/23 16:23:45;;;;;;;;;0.67;0.67;;;;;18.03;53.29;-892.41;4973408;28;45423;-93
2023/03/23 16:26:10;;;;;;;;;0.00;0.00;;;;;17.97;53.42;-219.69;4978909;28;46106;-93
2023/03/23 16:28:36;;;;;;;;;0.00;0.00;;;;;18.02;53.87;-555.97;4976832;28;45511;-92
2023/03/23 16:31:01;;;;;;;;;0.00;0.00;;;;;17.93;53.34;-556.31;4974105;28;45482;-91
2023/03/23 16:33:27;;;;;;;;;0.00;0.00;;;;;17.96;53.72;-219.75;4969574;28;45538;-93
2023/03/23 16:35:52;;;;;;;;;1.33;0.67;;;;;17.99;53.57;116.91;4977351;28;46431;-87
2023/03/23 16:38:18;;;;;;;;;0.67;0.00;;;;;17.38;53.33;113.59;4977902;28;45342;-92
2023/03/23 16:40:44;;;;;;;;;2.00;0.00;;;;;18.07;53.03;117.38;4978667;28;45767;-90
2023/03/23 16:43:10;;;;;;;;;0.00;0.00;;;;;18.04;53.74;117.19;4981928;28;45329;-92
2023/03/23 16:45:38;;;;;;;;;0.00;0.00;;;;;17.88;53.29;452.84;4976140;28;45823;-93
2023/03/23 16:48:04;;;;;;;;;0.00;0.00;;;;;18.01;53.49;790.16;4972777;28;45428;-93
2023/03/23 16:50:29;;;;;;;;;0.00;0.00;;;;;17.41;53.28;450.00;4965769;28;45352;-93
2023/03/23 16:52:55;;;;;;;;;0.00;0.00;;;;;17.99;53.11;453.44;4973838;28;45580;-95
2023/03/23 16:55:21;;;;;;;;;2.00;0.00;;;;;17.89;53.55;452.91;4979816;28;45611;-96
2023/03/23 16:57:46;;;;;;;;;0.00;0.00;;;;;17.96;53.23;789.84;4980841;28;45375;-95
2023/03/23 17:00:15;;;;;;;;;0.00;0.00;;;;;17.62;53.27;451.28;4979524;28;45444;-96
2023/03/23 17:02:42;;;;;;;;;1.33;0.67;;;;;17.93;53.63;789.69;4981340;28;45221;-94
2023/03/23 17:05:09;;;;;;;;;1.00;1.00;;;;;17.81;53.23;788.84;4980933;28;46334;-95
2023/03/23 17:07:35;;;;;;;;;1.33;1.00;;;;;17.56;53.41;787.22;4962489;28;45607;-96
2023/03/23 17:10:00;;;;;;;;;0.00;0.00;;;;;17.86;53.84;789.22;4982748;28;45352;-93
2023/03/23 17:12:26;;;;;;;;;0.00;0.00;;;;;17.82;53.71;452.44;4981493;28;45305;-95
2023/03/23 17:14:51;;;;;;;;;1.00;1.00;;;;;17.73;53.81;788.34;4984691;28;45416;-87
2023/03/23 17:17:16;;;;;;;;;0.00;0.00;;;;;17.05;54.38;447.91;4979476;28;45410;-88
2023/03/23 17:19:42;;;;;;;;;0.33;0.33;;;;;17.34;53.84;449.59;4979953;28;45543;-88
2023/03/23 17:22:07;;;;;;;;;0.00;0.00;;;;;17.80;54.11;452.31;4991014;28;45336;-88
2023/03/23 17:24:32;;;;;;;;;0.00;0.00;;;;;17.58;54.32;451.00;4979110;28;45450;-88
2023/03/23 17:26:58;;;;;;;;;0.00;0.00;;;;;17.58;54.26;114.69;4979223;28;45419;-88
2023/03/23 17:29:23;;;;;;;;;2.00;0.00;;;;;17.68;54.21;115.25;4978959;28;45322;-87
2023/03/23 17:31:49;;;;;;;;;0.00;0.00;;;;;17.78;54.86;-220.63;4978853;28;45393;-87
2023/03/23 17:34:15;;;;;;;;;0.00;0.00;;;;;17.61;54.85;-221.47;4973467;28;45380;-93
2023/03/23 17:36:40;;;;;;;;;1.33;1.00;;;;;17.57;55.09;-557.94;4953549;28;45648;-88
2023/03/23 17:39:06;;;;;;;;;2.00;0.00;;;;;17.22;55.23;-559.41;4966603;28;45428;-88
2023/03/23 17:41:31;;;;;;;;;0.00;0.00;;;;;16.87;54.95;-560.91;4959746;28;45608;-88
2023/03/23 17:43:57;;;;;;;;;0.67;0.67;;;;;17.71;55.08;-893.59;4960772;28;48582;-88
2023/03/23 17:46:23;;;;;;;;;0.00;0.00;;;;;17.65;55.47;-1230.09;4949339;28;46550;-88
2023/03/23 17:48:48;;;;;;;;;0.00;0.00;;;;;17.40;55.23;-1230.91;4962756;28;45710;-88
2023/03/23 17:51:14;;;;;;;;;0.00;0.00;;;;;17.68;55.76;-1566.22;4974101;28;45756;-88
2023/03/23 17:53:39;;;;;;;;;0.33;0.33;;;;;17.42;55.70;-1566.94;4973319;28;46005;-88
2023/03/23 17:56:05;;;;;;;;;0.00;0.00;;;;;17.49;55.72;-1566.75;4975367;28;46372;-88
2023/03/23 17:58:31;;;;;;;;;1.00;1.00;;;;;17.59;55.50;-1566.47;4977210;28;45670;-88
2023/03/23 18:00:57;;;;;;;;;0.33;0.33;;;;;17.60;55.63;-1566.44;4977860;28;45450;-87
2023/03/23 18:03:24;;;;;;;;;0.00;0.00;;;;;17.52;55.42;-1566.66;4978302;28;45537;-88
2023/03/23 18:05:51;;;;;;;;;0.00;0.00;;;;;17.22;55.88;-1903.44;4974519;28;45514;-88
2023/03/23 18:08:16;;;;;;;;;0.00;0.00;;;;;17.54;56.28;-2238.84;4978573;28;45445;-88
2023/03/23 18:10:42;;;;;;;;;0.00;0.00;;;;;17.28;56.63;-2575.19;4978562;28;45430;-88
2023/03/23 18:13:08;;;;;;;;;0.00;0.00;;;;;17.50;56.27;-2574.94;4973551;28;46211;-88
2023/03/23 18:15:35;;;;;;;;;0.33;0.33;;;;;17.14;56.48;-3246.97;4977463;28;45533;-89
2023/03/23 18:18:03;;;;;;;;;0.00;0.00;;;;;17.49;57.07;-3582.94;4978203;28;45566;-89
2023/03/23 18:20:30;;;;;;;;;0.00;0.00;;;;;17.27;56.93;-3918.63;4980240;28;45484;-90
2023/03/23 18:22:55;;;;;;;;;0.00;0.00;;;;;17.46;57.35;-4926.38;4978115;28;45603;-88
2023/03/23 18:25:21;;;;;;;;;0.00;0.00;;;;;17.46;57.37;-5262.19;4976874;28;45562;-88
2023/03/23 18:27:46;;;;;;;;;0.00;0.00;;;;;17.45;57.86;-5597.91;4960449;28;45647;-91
2023/03/23 18:30:12;;;;;;;;;0.00;0.00;;;;;17.04;58.65;-6938.22;4962051;28;45461;-88